sensor_id;sensor_type;location;lat;lon;timestamp;pressure;altitude;pressure_sealevel;temperature;humidity
38806;BME280;25635;51.146;17.162;2023-12-07T00:01:23;100218.96;;;-1.38;90.85
38806;BME280;25635;51.146;17.162;2023-12-07T00:03:50;100219.70;;;-1.37;91.11
38806;BME280;25635;51.146;17.162;2023-12-07T00:06:16;100224.27;;;-1.39;91.00
38806;BME280;25635;51.146;17.162;2023-12-07T00:08:43;100223.91;;;-1.43;91.13
38806;BME280;25635;51.146;17.162;2023-12-07T00:11:10;100223.88;;;-1.44;90.96
38806;BME280;25635;51.146;17.162;2023-12-07T00:13:36;100224.40;;;-1.44;91.23
38806;BME280;25635;51.146;17.162;2023-12-07T00:16:03;100227.17;;;-1.43;91.48
38806;BME280;25635;51.146;17.162;2023-12-07T00:18:30;100225.84;;;-1.42;91.47
38806;BME280;25635;51.146;17.162;2023-12-07T00:20:57;100228.45;;;-1.41;91.36
38806;BME280;25635;51.146;17.162;2023-12-07T00:23:23;100230.67;;;-1.41;91.35
38806;BME280;25635;51.146;17.162;2023-12-07T00:25:50;100229.23;;;-1.42;91.17
38806;BME280;25635;51.146;17.162;2023-12-07T00:28:17;100227.59;;;-1.41;91.37
38806;BME280;25635;51.146;17.162;2023-12-07T00:30:44;100231.31;;;-1.37;91.56
38806;BME280;25635;51.146;17.162;2023-12-07T00:33:10;100226.63;;;-1.35;91.46
38806;BME280;25635;51.146;17.162;2023-12-07T00:35:37;100229.55;;;-1.35;91.38
38806;BME280;25635;51.146;17.162;2023-12-07T00:38:03;100231.00;;;-1.33;91.32
38806;BME280;25635;51.146;17.162;2023-12-07T00:40:32;100230.21;;;-1.31;91.31
38806;BME280;25635;51.146;17.162;2023-12-07T00:43:02;100234.47;;;-1.32;91.14
38806;BME280;25635;51.146;17.162;2023-12-07T00:45:29;100236.83;;;-1.33;91.38
38806;BME280;25635;51.146;17.162;2023-12-07T00:47:57;100236.42;;;-1.34;91.58
38806;BME280;25635;51.146;17.162;2023-12-07T00:50:23;100237.67;;;-1.36;91.24
38806;BME280;25635;51.146;17.162;2023-12-07T00:52:50;100237.52;;;-1.36;91.56
38806;BME280;25635;51.146;17.162;2023-12-07T00:55:17;100238.19;;;-1.37;91.58
38806;BME280;25635;51.146;17.162;2023-12-07T00:57:44;100241.46;;;-1.36;91.31
38806;BME280;25635;51.146;17.162;2023-12-07T01:00:10;100244.23;;;-1.39;90.96
38806;BME280;25635;51.146;17.162;2023-12-07T01:02:38;100243.48;;;-1.41;91.18
38806;BME280;25635;51.146;17.162;2023-12-07T01:05:04;100242.64;;;-1.41;91.25
38806;BME280;25635;51.146;17.162;2023-12-07T01:07:32;100243.89;;;-1.40;91.31
38806;BME280;25635;51.146;17.162;2023-12-07T01:09:59;100243.24;;;-1.39;91.25
38806;BME280;25635;51.146;17.162;2023-12-07T01:12:26;100243.29;;;-1.38;91.37
38806;BME280;25635;51.146;17.162;2023-12-07T01:14:52;100249.75;;;-1.34;91.65
38806;BME280;25635;51.146;17.162;2023-12-07T01:17:20;100249.11;;;-1.33;91.52
38806;BME280;25635;51.146;17.162;2023-12-07T01:19:46;100249.44;;;-1.34;91.64
38806;BME280;25635;51.146;17.162;2023-12-07T01:22:13;100252.94;;;-1.36;91.47
38806;BME280;25635;51.146;17.162;2023-12-07T01:24:40;100253.57;;;-1.37;91.08
38806;BME280;25635;51.146;17.162;2023-12-07T01:27:07;100256.62;;;-1.38;91.20
38806;BME280;25635;51.146;17.162;2023-12-07T01:29:33;100256.20;;;-1.36;91.12
38806;BME280;25635;51.146;17.162;2023-12-07T01:32:00;100257.25;;;-1.35;91.24
38806;BME280;25635;51.146;17.162;2023-12-07T01:34:27;100257.06;;;-1.35;91.30
38806;BME280;25635;51.146;17.162;2023-12-07T01:36:53;100265.77;;;-1.36;91.27
38806;BME280;25635;51.146;17.162;2023-12-07T01:39:20;100263.96;;;-1.34;91.45
38806;BME280;25635;51.146;17.162;2023-12-07T01:41:48;100263.86;;;-1.32;91.31
38806;BME280;25635;51.146;17.162;2023-12-07T01:44:14;100266.21;;;-1.29;91.16
38806;BME280;25635;51.146;17.162;2023-12-07T01:46:42;100269.85;;;-1.28;91.37
38806;BME280;25635;51.146;17.162;2023-12-07T01:49:09;100271.91;;;-1.28;91.26
38806;BME280;25635;51.146;17.162;2023-12-07T01:51:36;100269.75;;;-1.30;91.39
38806;BME280;25635;51.146;17.162;2023-12-07T01:54:04;100272.23;;;-1.32;91.35
38806;BME280;25635;51.146;17.162;2023-12-07T01:56:31;100269.81;;;-1.33;91.24
38806;BME280;25635;51.146;17.162;2023-12-07T01:58:57;100270.91;;;-1.36;91.31
38806;BME280;25635;51.146;17.162;2023-12-07T02:01:24;100270.81;;;-1.38;91.07
38806;BME280;25635;51.146;17.162;2023-12-07T02:03:51;100274.64;;;-1.41;91.41
38806;BME280;25635;51.146;17.162;2023-12-07T02:06:18;100271.98;;;-1.43;91.16
38806;BME280;25635;51.146;17.162;2023-12-07T02:08:45;100276.73;;;-1.39;91.27
38806;BME280;25635;51.146;17.162;2023-12-07T02:11:12;100277.04;;;-1.36;91.36
38806;BME280;25635;51.146;17.162;2023-12-07T02:13:40;100276.35;;;-1.37;91.13
38806;BME280;25635;51.146;17.162;2023-12-07T02:16:13;100278.81;;;-1.35;91.65
38806;BME280;25635;51.146;17.162;2023-12-07T02:18:50;100279.88;;;-1.34;91.08
38806;BME280;25635;51.146;17.162;2023-12-07T02:21:29;100284.53;;;-1.33;91.33
38806;BME280;25635;51.146;17.162;2023-12-07T02:23:58;100286.27;;;-1.32;91.56
38806;BME280;25635;51.146;17.162;2023-12-07T02:26:35;100285.77;;;-1.32;91.23
38806;BME280;25635;51.146;17.162;2023-12-07T02:29:01;100290.41;;;-1.32;91.48
38806;BME280;25635;51.146;17.162;2023-12-07T02:31:29;100291.75;;;-1.32;91.19
38806;BME280;25635;51.146;17.162;2023-12-07T02:33:56;100287.08;;;-1.34;90.90
38806;BME280;25635;51.146;17.162;2023-12-07T02:36:24;100287.88;;;-1.35;90.88
38806;BME280;25635;51.146;17.162;2023-12-07T02:38:56;100289.55;;;-1.31;90.91
38806;BME280;25635;51.146;17.162;2023-12-07T02:41:25;100290.44;;;-1.27;91.04
38806;BME280;25635;51.146;17.162;2023-12-07T02:43:53;100291.10;;;-1.23;91.00
38806;BME280;25635;51.146;17.162;2023-12-07T02:46:20;100290.46;;;-1.22;90.78
38806;BME280;25635;51.146;17.162;2023-12-07T02:48:47;100287.38;;;-1.18;91.03
38806;BME280;25635;51.146;17.162;2023-12-07T02:51:13;100293.29;;;-1.15;90.83
38806;BME280;25635;51.146;17.162;2023-12-07T02:53:40;100294.13;;;-1.16;90.62
38806;BME280;25635;51.146;17.162;2023-12-07T02:56:07;100296.17;;;-1.16;90.94
38806;BME280;25635;51.146;17.162;2023-12-07T02:58:34;100299.30;;;-1.15;91.00
38806;BME280;25635;51.146;17.162;2023-12-07T03:01:01;100299.29;;;-1.15;90.72
38806;BME280;25635;51.146;17.162;2023-12-07T03:03:28;100306.34;;;-1.14;90.83
38806;BME280;25635;51.146;17.162;2023-12-07T03:05:55;100309.41;;;-1.15;90.81
38806;BME280;25635;51.146;17.162;2023-12-07T03:08:21;100311.05;;;-1.16;90.86
38806;BME280;25635;51.146;17.162;2023-12-07T03:10:48;100309.56;;;-1.15;90.78
38806;BME280;25635;51.146;17.162;2023-12-07T03:13:15;100308.28;;;-1.13;90.64
38806;BME280;25635;51.146;17.162;2023-12-07T03:15:42;100304.77;;;-1.11;90.68
38806;BME280;25635;51.146;17.162;2023-12-07T03:18:09;100306.20;;;-1.09;90.68
38806;BME280;25635;51.146;17.162;2023-12-07T03:20:35;100309.05;;;-1.07;90.70
38806;BME280;25635;51.146;17.162;2023-12-07T03:23:03;100312.16;;;-1.06;90.50
38806;BME280;25635;51.146;17.162;2023-12-07T03:25:30;100316.61;;;-1.06;90.73
38806;BME280;25635;51.146;17.162;2023-12-07T03:27:57;100320.37;;;-1.06;90.62
38806;BME280;25635;51.146;17.162;2023-12-07T03:30:24;100325.79;;;-1.07;90.77
38806;BME280;25635;51.146;17.162;2023-12-07T03:32:51;100325.86;;;-1.10;90.59
38806;BME280;25635;51.146;17.162;2023-12-07T03:35:17;100326.15;;;-1.11;90.85
38806;BME280;25635;51.146;17.162;2023-12-07T03:37:44;100328.64;;;-1.13;90.49
38806;BME280;25635;51.146;17.162;2023-12-07T03:40:11;100330.19;;;-1.13;90.62
38806;BME280;25635;51.146;17.162;2023-12-07T03:42:37;100335.00;;;-1.13;90.71
38806;BME280;25635;51.146;17.162;2023-12-07T03:45:04;100339.02;;;-1.10;90.66
38806;BME280;25635;51.146;17.162;2023-12-07T03:47:32;100340.52;;;-1.07;90.55
38806;BME280;25635;51.146;17.162;2023-12-07T03:49:58;100342.16;;;-1.05;90.64
38806;BME280;25635;51.146;17.162;2023-12-07T03:52:25;100344.27;;;-1.03;90.52
38806;BME280;25635;51.146;17.162;2023-12-07T03:54:52;100347.48;;;-1.00;90.72
38806;BME280;25635;51.146;17.162;2023-12-07T03:57:18;100345.52;;;-0.97;90.53
38806;BME280;25635;51.146;17.162;2023-12-07T03:59:45;100349.14;;;-0.97;90.60
38806;BME280;25635;51.146;17.162;2023-12-07T04:02:13;100351.11;;;-0.99;90.68
38806;BME280;25635;51.146;17.162;2023-12-07T04:04:39;100355.98;;;-1.01;90.44
38806;BME280;25635;51.146;17.162;2023-12-07T04:07:06;100352.86;;;-1.03;90.76
38806;BME280;25635;51.146;17.162;2023-12-07T04:09:33;100354.70;;;-1.04;90.84
38806;BME280;25635;51.146;17.162;2023-12-07T04:12:00;100355.96;;;-1.06;90.97
38806;BME280;25635;51.146;17.162;2023-12-07T04:14:27;100356.73;;;-1.08;90.73
38806;BME280;25635;51.146;17.162;2023-12-07T04:16:54;100355.35;;;-1.09;90.84
38806;BME280;25635;51.146;17.162;2023-12-07T04:19:20;100358.54;;;-1.10;90.86
38806;BME280;25635;51.146;17.162;2023-12-07T04:21:47;100361.22;;;-1.11;90.60
38806;BME280;25635;51.146;17.162;2023-12-07T04:24:14;100361.81;;;-1.13;90.82
38806;BME280;25635;51.146;17.162;2023-12-07T04:26:40;100363.70;;;-1.14;90.71
38806;BME280;25635;51.146;17.162;2023-12-07T04:29:08;100365.45;;;-1.13;90.93
38806;BME280;25635;51.146;17.162;2023-12-07T04:31:34;100364.13;;;-1.12;90.84
38806;BME280;25635;51.146;17.162;2023-12-07T04:34:02;100362.98;;;-1.10;90.78
38806;BME280;25635;51.146;17.162;2023-12-07T04:36:29;100364.15;;;-1.11;90.77
38806;BME280;25635;51.146;17.162;2023-12-07T04:38:56;100358.85;;;-1.11;91.03
38806;BME280;25635;51.146;17.162;2023-12-07T04:41:22;100365.63;;;-1.13;90.74
38806;BME280;25635;51.146;17.162;2023-12-07T04:43:49;100362.27;;;-1.15;90.83
38806;BME280;25635;51.146;17.162;2023-12-07T04:46:15;100363.34;;;-1.18;90.58
38806;BME280;25635;51.146;17.162;2023-12-07T04:48:42;100364.48;;;-1.19;91.06
38806;BME280;25635;51.146;17.162;2023-12-07T04:51:09;100368.80;;;-1.23;91.08
38806;BME280;25635;51.146;17.162;2023-12-07T04:53:35;100371.61;;;-1.20;90.89
38806;BME280;25635;51.146;17.162;2023-12-07T04:56:02;100374.19;;;-1.20;91.00
38806;BME280;25635;51.146;17.162;2023-12-07T04:58:29;100374.11;;;-1.22;90.67
38806;BME280;25635;51.146;17.162;2023-12-07T05:00:56;100378.67;;;-1.24;91.02
38806;BME280;25635;51.146;17.162;2023-12-07T05:03:22;100378.05;;;-1.22;90.82
38806;BME280;25635;51.146;17.162;2023-12-07T05:05:49;100374.77;;;-1.23;90.78
38806;BME280;25635;51.146;17.162;2023-12-07T05:08:16;100378.80;;;-1.25;90.79
38806;BME280;25635;51.146;17.162;2023-12-07T05:10:44;100386.23;;;-1.27;90.95
38806;BME280;25635;51.146;17.162;2023-12-07T05:13:11;100388.98;;;-1.27;91.04
38806;BME280;25635;51.146;17.162;2023-12-07T05:15:39;100393.77;;;-1.27;91.33
38806;BME280;25635;51.146;17.162;2023-12-07T05:18:06;100395.34;;;-1.26;91.45
38806;BME280;25635;51.146;17.162;2023-12-07T05:20:32;100399.66;;;-1.25;91.23
38806;BME280;25635;51.146;17.162;2023-12-07T05:23:00;100396.70;;;-1.26;91.60
38806;BME280;25635;51.146;17.162;2023-12-07T05:25:27;100401.85;;;-1.26;91.30
38806;BME280;25635;51.146;17.162;2023-12-07T05:27:53;100403.07;;;-1.25;91.10
38806;BME280;25635;51.146;17.162;2023-12-07T05:30:20;100405.62;;;-1.26;91.43
38806;BME280;25635;51.146;17.162;2023-12-07T05:32:47;100412.38;;;-1.24;91.35
38806;BME280;25635;51.146;17.162;2023-12-07T05:35:14;100414.05;;;-1.21;91.49
38806;BME280;25635;51.146;17.162;2023-12-07T05:37:41;100416.95;;;-1.17;91.52
38806;BME280;25635;51.146;17.162;2023-12-07T05:40:08;100413.60;;;-1.15;91.56
38806;BME280;25635;51.146;17.162;2023-12-07T05:42:35;100413.85;;;-1.13;91.29
38806;BME280;25635;51.146;17.162;2023-12-07T05:45:02;100412.07;;;-1.15;91.28
38806;BME280;25635;51.146;17.162;2023-12-07T05:47:29;100415.54;;;-1.18;91.24
38806;BME280;25635;51.146;17.162;2023-12-07T05:49:56;100417.98;;;-1.21;91.33
38806;BME280;25635;51.146;17.162;2023-12-07T05:52:24;100422.38;;;-1.22;91.39
38806;BME280;25635;51.146;17.162;2023-12-07T05:54:51;100421.13;;;-1.23;91.28
38806;BME280;25635;51.146;17.162;2023-12-07T05:57:17;100422.73;;;-1.21;91.54
38806;BME280;25635;51.146;17.162;2023-12-07T05:59:44;100423.98;;;-1.20;91.56
38806;BME280;25635;51.146;17.162;2023-12-07T06:02:11;100427.48;;;-1.18;91.64
38806;BME280;25635;51.146;17.162;2023-12-07T06:04:38;100427.89;;;-1.17;91.39
38806;BME280;25635;51.146;17.162;2023-12-07T06:07:05;100436.51;;;-1.15;91.55
38806;BME280;25635;51.146;17.162;2023-12-07T06:09:31;100436.91;;;-1.14;91.45
38806;BME280;25635;51.146;17.162;2023-12-07T06:11:59;100440.29;;;-1.11;91.49
38806;BME280;25635;51.146;17.162;2023-12-07T06:14:26;100444.70;;;-1.08;91.34
38806;BME280;25635;51.146;17.162;2023-12-07T06:16:53;100449.08;;;-1.06;91.37
38806;BME280;25635;51.146;17.162;2023-12-07T06:19:20;100451.48;;;-1.05;91.24
38806;BME280;25635;51.146;17.162;2023-12-07T06:21:47;100451.81;;;-1.06;91.36
38806;BME280;25635;51.146;17.162;2023-12-07T06:24:14;100457.23;;;-1.07;91.15
38806;BME280;25635;51.146;17.162;2023-12-07T06:26:41;100458.83;;;-1.10;91.07
38806;BME280;25635;51.146;17.162;2023-12-07T06:29:07;100457.36;;;-1.12;91.39
38806;BME280;25635;51.146;17.162;2023-12-07T06:31:34;100455.25;;;-1.13;91.32
38806;BME280;25635;51.146;17.162;2023-12-07T06:34:01;100455.75;;;-1.13;91.03
38806;BME280;25635;51.146;17.162;2023-12-07T06:36:29;100455.92;;;-1.13;91.51
38806;BME280;25635;51.146;17.162;2023-12-07T06:38:56;100460.35;;;-1.14;91.10
38806;BME280;25635;51.146;17.162;2023-12-07T06:41:22;100463.61;;;-1.14;91.51
38806;BME280;25635;51.146;17.162;2023-12-07T06:43:49;100466.45;;;-1.11;91.65
38806;BME280;25635;51.146;17.162;2023-12-07T06:46:16;100470.98;;;-1.10;91.39
38806;BME280;25635;51.146;17.162;2023-12-07T06:48:43;100474.70;;;-1.08;91.39
38806;BME280;25635;51.146;17.162;2023-12-07T06:51:09;100478.64;;;-1.03;91.43
38806;BME280;25635;51.146;17.162;2023-12-07T06:53:36;100481.20;;;-0.99;91.22
38806;BME280;25635;51.146;17.162;2023-12-07T06:56:03;100480.67;;;-0.95;91.12
38806;BME280;25635;51.146;17.162;2023-12-07T06:58:30;100478.56;;;-0.93;91.39
38806;BME280;25635;51.146;17.162;2023-12-07T07:00:56;100482.75;;;-0.91;91.23
38806;BME280;25635;51.146;17.162;2023-12-07T07:03:24;100482.63;;;-0.89;91.32
38806;BME280;25635;51.146;17.162;2023-12-07T07:05:51;100483.10;;;-0.90;91.15
38806;BME280;25635;51.146;17.162;2023-12-07T07:08:17;100484.01;;;-0.93;91.08
38806;BME280;25635;51.146;17.162;2023-12-07T07:10:44;100485.23;;;-0.97;90.96
38806;BME280;25635;51.146;17.162;2023-12-07T07:13:13;100488.95;;;-0.98;91.07
38806;BME280;25635;51.146;17.162;2023-12-07T07:15:42;100489.98;;;-0.98;91.03
38806;BME280;25635;51.146;17.162;2023-12-07T07:18:11;100486.65;;;-0.99;90.93
38806;BME280;25635;51.146;17.162;2023-12-07T07:20:37;100485.56;;;-1.01;90.92
38806;BME280;25635;51.146;17.162;2023-12-07T07:23:04;100487.51;;;-0.99;91.19
38806;BME280;25635;51.146;17.162;2023-12-07T07:25:31;100489.73;;;-0.95;91.01
38806;BME280;25635;51.146;17.162;2023-12-07T07:27:58;100492.65;;;-0.91;91.11
38806;BME280;25635;51.146;17.162;2023-12-07T07:30:24;100496.84;;;-0.90;91.08
38806;BME280;25635;51.146;17.162;2023-12-07T07:32:51;100497.70;;;-0.89;91.05
38806;BME280;25635;51.146;17.162;2023-12-07T07:35:18;100497.30;;;-0.90;91.14
38806;BME280;25635;51.146;17.162;2023-12-07T07:37:44;100502.21;;;-0.92;91.02
38806;BME280;25635;51.146;17.162;2023-12-07T07:40:11;100502.56;;;-0.92;91.44
38806;BME280;25635;51.146;17.162;2023-12-07T07:42:38;100501.15;;;-0.92;91.51
38806;BME280;25635;51.146;17.162;2023-12-07T07:45:09;100500.80;;;-0.93;91.67
38806;BME280;25635;51.146;17.162;2023-12-07T07:47:36;100500.09;;;-0.94;91.64
38806;BME280;25635;51.146;17.162;2023-12-07T07:50:04;100503.37;;;-0.97;91.41
38806;BME280;25635;51.146;17.162;2023-12-07T07:52:33;100514.02;;;-0.96;91.67
38806;BME280;25635;51.146;17.162;2023-12-07T07:55:00;100513.02;;;-0.91;91.55
38806;BME280;25635;51.146;17.162;2023-12-07T07:57:29;100518.88;;;-0.87;91.46
38806;BME280;25635;51.146;17.162;2023-12-07T07:59:57;100520.27;;;-0.83;91.46
38806;BME280;25635;51.146;17.162;2023-12-07T08:02:24;100523.19;;;-0.77;91.41
38806;BME280;25635;51.146;17.162;2023-12-07T08:04:51;100520.92;;;-0.75;91.32
38806;BME280;25635;51.146;17.162;2023-12-07T08:07:18;100521.90;;;-0.72;91.55
38806;BME280;25635;51.146;17.162;2023-12-07T08:09:45;100522.54;;;-0.69;91.73
38806;BME280;25635;51.146;17.162;2023-12-07T08:12:12;100522.56;;;-0.69;91.58
38806;BME280;25635;51.146;17.162;2023-12-07T08:14:39;100524.10;;;-0.69;91.33
38806;BME280;25635;51.146;17.162;2023-12-07T08:17:06;100525.11;;;-0.69;91.57
38806;BME280;25635;51.146;17.162;2023-12-07T08:19:33;100525.33;;;-0.72;91.54
38806;BME280;25635;51.146;17.162;2023-12-07T08:22:00;100524.90;;;-0.74;91.76
38806;BME280;25635;51.146;17.162;2023-12-07T08:24:26;100529.67;;;-0.74;91.81
38806;BME280;25635;51.146;17.162;2023-12-07T08:26:53;100531.91;;;-0.74;91.68
38806;BME280;25635;51.146;17.162;2023-12-07T08:29:20;100531.56;;;-0.74;91.80
38806;BME280;25635;51.146;17.162;2023-12-07T08:31:50;100534.83;;;-0.74;91.85
38806;BME280;25635;51.146;17.162;2023-12-07T08:34:23;100538.77;;;-0.74;91.71
38806;BME280;25635;51.146;17.162;2023-12-07T08:36:51;100539.29;;;-0.73;91.80
38806;BME280;25635;51.146;17.162;2023-12-07T08:39:18;100543.65;;;-0.72;91.98
38806;BME280;25635;51.146;17.162;2023-12-07T08:41:44;100541.68;;;-0.70;92.14
38806;BME280;25635;51.146;17.162;2023-12-07T08:44:11;100542.97;;;-0.68;92.00
38806;BME280;25635;51.146;17.162;2023-12-07T08:46:38;100545.14;;;-0.65;92.24
38806;BME280;25635;51.146;17.162;2023-12-07T08:49:05;100545.75;;;-0.63;92.26
38806;BME280;25635;51.146;17.162;2023-12-07T08:51:32;100541.42;;;-0.60;92.31
38806;BME280;25635;51.146;17.162;2023-12-07T08:53:59;100545.09;;;-0.58;92.44
38806;BME280;25635;51.146;17.162;2023-12-07T08:56:26;100542.52;;;-0.58;92.37
38806;BME280;25635;51.146;17.162;2023-12-07T08:58:53;100543.05;;;-0.58;92.47
38806;BME280;25635;51.146;17.162;2023-12-07T09:01:20;100538.75;;;-0.54;92.59
38806;BME280;25635;51.146;17.162;2023-12-07T09:03:46;100537.00;;;-0.51;92.39
38806;BME280;25635;51.146;17.162;2023-12-07T09:06:13;100533.89;;;-0.48;92.44
38806;BME280;25635;51.146;17.162;2023-12-07T09:08:40;100536.17;;;-0.42;92.64
38806;BME280;25635;51.146;17.162;2023-12-07T09:11:07;100535.00;;;-0.37;92.44
38806;BME280;25635;51.146;17.162;2023-12-07T09:13:34;100536.30;;;-0.35;92.28
38806;BME280;25635;51.146;17.162;2023-12-07T09:16:01;100537.57;;;-0.33;92.05
38806;BME280;25635;51.146;17.162;2023-12-07T09:18:28;100539.73;;;-0.31;92.55
38806;BME280;25635;51.146;17.162;2023-12-07T09:20:55;100542.16;;;-0.30;92.33
38806;BME280;25635;51.146;17.162;2023-12-07T09:23:21;100546.61;;;-0.30;92.52
38806;BME280;25635;51.146;17.162;2023-12-07T09:25:48;100542.70;;;-0.29;92.52
38806;BME280;25635;51.146;17.162;2023-12-07T09:28:15;100540.02;;;-0.28;92.65
38806;BME280;25635;51.146;17.162;2023-12-07T09:30:41;100536.52;;;-0.25;92.85
38806;BME280;25635;51.146;17.162;2023-12-07T09:33:08;100539.14;;;-0.24;92.78
38806;BME280;25635;51.146;17.162;2023-12-07T09:35:35;100534.69;;;-0.20;92.85
38806;BME280;25635;51.146;17.162;2023-12-07T09:38:02;100533.04;;;-0.14;92.85
38806;BME280;25635;51.146;17.162;2023-12-07T09:40:29;100536.49;;;-0.09;92.84
38806;BME280;25635;51.146;17.162;2023-12-07T09:42:57;100536.02;;;-0.04;92.76
38806;BME280;25635;51.146;17.162;2023-12-07T09:45:23;100535.50;;;0.00;92.68
38806;BME280;25635;51.146;17.162;2023-12-07T09:47:52;100530.86;;;0.05;92.53
38806;BME280;25635;51.146;17.162;2023-12-07T09:50:21;100528.70;;;0.06;92.46
38806;BME280;25635;51.146;17.162;2023-12-07T09:52:52;100527.38;;;0.08;92.32
38806;BME280;25635;51.146;17.162;2023-12-07T09:55:19;100530.63;;;0.08;92.47
38806;BME280;25635;51.146;17.162;2023-12-07T09:57:49;100528.69;;;0.06;92.35
38806;BME280;25635;51.146;17.162;2023-12-07T10:00:17;100528.94;;;0.04;92.38
38806;BME280;25635;51.146;17.162;2023-12-07T10:02:45;100530.02;;;0.01;92.59
38806;BME280;25635;51.146;17.162;2023-12-07T10:05:14;100527.00;;;-0.02;92.62
38806;BME280;25635;51.146;17.162;2023-12-07T10:07:44;100524.87;;;-0.04;92.63
38806;BME280;25635;51.146;17.162;2023-12-07T10:10:14;100524.27;;;-0.02;92.80
38806;BME280;25635;51.146;17.162;2023-12-07T10:12:54;100527.52;;;0.03;93.02
38806;BME280;25635;51.146;17.162;2023-12-07T10:15:23;100526.98;;;0.06;93.11
38806;BME280;25635;51.146;17.162;2023-12-07T10:17:52;100531.14;;;0.07;92.79
38806;BME280;25635;51.146;17.162;2023-12-07T10:20:27;100528.22;;;0.11;92.87
38806;BME280;25635;51.146;17.162;2023-12-07T10:23:07;100527.68;;;0.15;92.79
38806;BME280;25635;51.146;17.162;2023-12-07T10:25:41;100528.79;;;0.17;92.77
38806;BME280;25635;51.146;17.162;2023-12-07T10:28:09;100527.52;;;0.20;92.93
38806;BME280;25635;51.146;17.162;2023-12-07T10:30:39;100528.52;;;0.24;93.16
38806;BME280;25635;51.146;17.162;2023-12-07T10:33:07;100527.46;;;0.23;92.72
38806;BME280;25635;51.146;17.162;2023-12-07T10:35:40;100530.59;;;0.19;92.67
38806;BME280;25635;51.146;17.162;2023-12-07T10:38:08;100529.84;;;0.18;92.65
38806;BME280;25635;51.146;17.162;2023-12-07T10:40:35;100522.57;;;0.16;92.78
38806;BME280;25635;51.146;17.162;2023-12-07T10:43:05;100525.58;;;0.18;92.82
38806;BME280;25635;51.146;17.162;2023-12-07T10:45:33;100528.92;;;0.21;92.95
38806;BME280;25635;51.146;17.162;2023-12-07T10:48:03;100525.11;;;0.25;93.00
38806;BME280;25635;51.146;17.162;2023-12-07T10:50:34;100528.96;;;0.26;92.95
38806;BME280;25635;51.146;17.162;2023-12-07T10:53:24;100530.45;;;0.29;93.05
38806;BME280;25635;51.146;17.162;2023-12-07T10:56:00;100530.58;;;0.32;92.88
38806;BME280;25635;51.146;17.162;2023-12-07T10:58:27;100528.32;;;0.32;92.87
38806;BME280;25635;51.146;17.162;2023-12-07T11:00:54;100527.06;;;0.30;92.83
38806;BME280;25635;51.146;17.162;2023-12-07T11:03:21;100526.09;;;0.28;92.78
38806;BME280;25635;51.146;17.162;2023-12-07T11:05:49;100526.52;;;0.25;93.09
38806;BME280;25635;51.146;17.162;2023-12-07T11:08:36;100528.63;;;0.27;93.07
38806;BME280;25635;51.146;17.162;2023-12-07T11:13:49;100527.02;;;0.29;93.11
38806;BME280;25635;51.146;17.162;2023-12-07T11:16:28;100522.17;;;0.28;92.82
38806;BME280;25635;51.146;17.162;2023-12-07T11:18:55;100523.86;;;0.32;93.27
38806;BME280;25635;51.146;17.162;2023-12-07T11:21:22;100523.19;;;0.32;93.14
38806;BME280;25635;51.146;17.162;2023-12-07T11:23:49;100519.27;;;0.33;93.10
38806;BME280;25635;51.146;17.162;2023-12-07T11:26:22;100520.31;;;0.38;93.42
38806;BME280;25635;51.146;17.162;2023-12-07T11:28:50;100522.33;;;0.37;93.27
38806;BME280;25635;51.146;17.162;2023-12-07T11:31:17;100521.59;;;0.35;93.37
38806;BME280;25635;51.146;17.162;2023-12-07T11:33:43;100520.96;;;0.32;93.31
38806;BME280;25635;51.146;17.162;2023-12-07T11:36:11;100518.87;;;0.31;93.52
38806;BME280;25635;51.146;17.162;2023-12-07T11:41:29;100515.29;;;0.32;93.62
38806;BME280;25635;51.146;17.162;2023-12-07T11:43:59;100511.88;;;0.32;93.42
38806;BME280;25635;51.146;17.162;2023-12-07T11:46:25;100515.54;;;0.34;93.65
38806;BME280;25635;51.146;17.162;2023-12-07T11:48:53;100514.61;;;0.36;93.63
38806;BME280;25635;51.146;17.162;2023-12-07T11:51:20;100516.79;;;0.40;93.65
38806;BME280;25635;51.146;17.162;2023-12-07T11:53:47;100515.48;;;0.42;93.49
38806;BME280;25635;51.146;17.162;2023-12-07T11:56:16;100516.21;;;0.43;93.56
38806;BME280;25635;51.146;17.162;2023-12-07T11:58:46;100516.84;;;0.46;93.65
38806;BME280;25635;51.146;17.162;2023-12-07T12:01:13;100511.31;;;0.45;93.65
38806;BME280;25635;51.146;17.162;2023-12-07T12:03:40;100513.73;;;0.40;93.58
38806;BME280;25635;51.146;17.162;2023-12-07T12:06:07;100514.88;;;0.39;93.69
38806;BME280;25635;51.146;17.162;2023-12-07T12:08:36;100517.85;;;0.36;93.58
38806;BME280;25635;51.146;17.162;2023-12-07T12:11:04;100518.75;;;0.33;93.67
38806;BME280;25635;51.146;17.162;2023-12-07T12:13:34;100519.08;;;0.32;94.04
38806;BME280;25635;51.146;17.162;2023-12-07T12:16:01;100526.38;;;0.30;93.87
38806;BME280;25635;51.146;17.162;2023-12-07T12:18:29;100522.43;;;0.30;93.99
38806;BME280;25635;51.146;17.162;2023-12-07T12:20:55;100526.03;;;0.30;94.12
38806;BME280;25635;51.146;17.162;2023-12-07T12:23:25;100524.33;;;0.31;94.19
38806;BME280;25635;51.146;17.162;2023-12-07T12:25:52;100520.33;;;0.29;94.15
38806;BME280;25635;51.146;17.162;2023-12-07T12:28:20;100522.63;;;0.27;94.39
38806;BME280;25635;51.146;17.162;2023-12-07T12:30:49;100521.23;;;0.26;94.52
38806;BME280;25635;51.146;17.162;2023-12-07T12:33:17;100517.35;;;0.24;94.68
38806;BME280;25635;51.146;17.162;2023-12-07T12:35:43;100519.33;;;0.21;94.68
38806;BME280;25635;51.146;17.162;2023-12-07T12:38:11;100518.60;;;0.19;94.94
38806;BME280;25635;51.146;17.162;2023-12-07T12:40:38;100521.56;;;0.21;94.92
38806;BME280;25635;51.146;17.162;2023-12-07T12:43:05;100518.71;;;0.24;95.05
38806;BME280;25635;51.146;17.162;2023-12-07T12:45:33;100521.41;;;0.26;95.14
38806;BME280;25635;51.146;17.162;2023-12-07T12:48:00;100519.02;;;0.30;95.01
38806;BME280;25635;51.146;17.162;2023-12-07T12:50:35;100518.50;;;0.35;95.15